sensor_id;sensor_type;location;lat;lon;timestamp;pressure;altitude;pressure_sealevel;temperature;humidity
30343;BME280;17145;49.902;8.680;'2023-02-20 00:57:42';101160;;;8;52
30343;BME280;17145;49.902;8.680;'2023-02-20 01:00:17';101160;;;9;52
30343;BME280;17145;49.902;8.680;'2023-02-20 01:02:46';101160;;;9;52
30343;BME280;17145;49.902;8.680;'2023-02-20 01:05:13';101150;;;8;52
30343;BME280;17145;49.902;8.680;'2023-02-20 01:07:41';101140;;;8;52
30343;BME280;17145;49.902;8.680;'2023-02-20 01:10:09';101140;;;9;52
30343;BME280;17145;49.902;8.680;'2023-02-20 01:12:37';101140;;;9;52
30343;BME280;17145;49.902;8.680;'2023-02-20 01:15:06';101150;;;9;52
30343;BME280;17145;49.902;8.680;'2023-02-20 01:17:34';101150;;;8;52
30343;BME280;17145;49.902;8.680;'2023-02-20 01:20:02';101140;;;9;52
30343;BME280;17145;49.902;8.680;'2023-02-20 01:22:30';101130;;;8;52
30343;BME280;17145;49.902;8.680;'2023-02-20 01:24:58';101130;;;8;52
30343;BME280;17145;49.902;8.680;'2023-02-20 01:27:25';101130;;;8;52
30343;BME280;17145;49.902;8.680;'2023-02-20 01:29:53';101130;;;8;52
30343;BME280;17145;49.902;8.680;'2023-02-20 01:32:22';101130;;;8;52
30343;BME280;17145;49.902;8.680;'2023-02-20 01:34:50';101130;;;8;52
30343;BME280;17145;49.902;8.680;'2023-02-20 01:37:17';101130;;;8;52
30343;BME280;17145;49.902;8.680;'2023-02-20 01:39:45';101130;;;8;52
30343;BME280;17145;49.902;8.680;'2023-02-20 01:42:12';101140;;;8;52
30343;BME280;17145;49.902;8.680;'2023-02-20 01:44:40';101130;;;8;52
30343;BME280;17145;49.902;8.680;'2023-02-20 01:47:08';101140;;;8;51
30343;BME280;17145;49.902;8.680;'2023-02-20 01:49:36';101140;;;8;51
30343;BME280;17145;49.902;8.680;'2023-02-20 01:52:04';101140;;;8;51
30343;BME280;17145;49.902;8.680;'2023-02-20 01:54:32';101140;;;8;51
30343;BME280;17145;49.902;8.680;'2023-02-20 01:57:00';101140;;;8;51
30343;BME280;17145;49.902;8.680;'2023-02-20 01:59:29';101140;;;8;50
30343;BME280;17145;49.902;8.680;'2023-02-20 02:01:57';101140;;;8;50
30343;BME280;17145;49.902;8.680;'2023-02-20 02:04:25';101140;;;8;50
30343;BME280;17145;49.902;8.680;'2023-02-20 02:06:53';101150;;;8;50
30343;BME280;17145;49.902;8.680;'2023-02-20 02:09:21';101150;;;8;50
30343;BME280;17145;49.902;8.680;'2023-02-20 02:11:48';101150;;;8;50
30343;BME280;17145;49.902;8.680;'2023-02-20 02:14:16';101130;;;8;50
30343;BME280;17145;49.902;8.680;'2023-02-20 02:16:44';101140;;;8;50
30343;BME280;17145;49.902;8.680;'2023-02-20 02:19:11';101140;;;8;50
30343;BME280;17145;49.902;8.680;'2023-02-20 02:21:39';101140;;;7;50
30343;BME280;17145;49.902;8.680;'2023-02-20 02:24:06';101140;;;7;50
30343;BME280;17145;49.902;8.680;'2023-02-20 02:26:34';101140;;;8;50
30343;BME280;17145;49.902;8.680;'2023-02-20 02:29:03';101140;;;8;50
30343;BME280;17145;49.902;8.680;'2023-02-20 02:31:30';101140;;;8;50
30343;BME280;17145;49.902;8.680;'2023-02-20 02:33:58';101140;;;7;50
30343;BME280;17145;49.902;8.680;'2023-02-20 02:36:25';101140;;;7;50
30343;BME280;17145;49.902;8.680;'2023-02-20 02:38:53';101130;;;8;50
30343;BME280;17145;49.902;8.680;'2023-02-20 02:41:22';101130;;;8;50
30343;BME280;17145;49.902;8.680;'2023-02-20 02:46:37';101130;;;8;50
30343;BME280;17145;49.902;8.680;'2023-02-20 02:49:09';101120;;;7;50
30343;BME280;17145;49.902;8.680;'2023-02-20 02:51:41';101120;;;8;50
30343;BME280;17145;49.902;8.680;'2023-02-20 02:54:13';101110;;;7;50
30343;BME280;17145;49.902;8.680;'2023-02-20 02:56:43';101120;;;7;50
30343;BME280;17145;49.902;8.680;'2023-02-20 02:59:13';101120;;;7;50
30343;BME280;17145;49.902;8.680;'2023-02-20 03:01:40';101110;;;7;50
30343;BME280;17145;49.902;8.680;'2023-02-20 03:04:10';101110;;;8;50
30343;BME280;17145;49.902;8.680;'2023-02-20 03:06:42';101110;;;7;50
30343;BME280;17145;49.902;8.680;'2023-02-20 03:09:17';101100;;;7;50
30343;BME280;17145;49.902;8.680;'2023-02-20 03:11:48';101100;;;8;50
30343;BME280;17145;49.902;8.680;'2023-02-20 03:14:15';101100;;;8;50
30343;BME280;17145;49.902;8.680;'2023-02-20 03:25:03';101080;;;7;50
30343;BME280;17145;49.902;8.680;'2023-02-20 03:35:53';101070;;;7;50
30343;BME280;17145;49.902;8.680;'2023-02-20 03:38:27';101070;;;7;50
30343;BME280;17145;49.902;8.680;'2023-02-20 03:41:04';101070;;;7;50
30343;BME280;17145;49.902;8.680;'2023-02-20 03:43:40';101080;;;7;50
30343;BME280;17145;49.902;8.680;'2023-02-20 03:46:13';101080;;;7;49
30343;BME280;17145;49.902;8.680;'2023-02-20 03:48:46';101080;;;7;50
30343;BME280;17145;49.902;8.680;'2023-02-20 03:54:02';101080;;;7;50
30343;BME280;17145;49.902;8.680;'2023-02-20 03:56:33';101080;;;7;49
30343;BME280;17145;49.902;8.680;'2023-02-20 03:59:02';101070;;;7;49
30343;BME280;17145;49.902;8.680;'2023-02-20 04:01:33';101080;;;7;50
30343;BME280;17145;49.902;8.680;'2023-02-20 04:04:03';101070;;;7;49
30343;BME280;17145;49.902;8.680;'2023-02-20 04:06:36';101070;;;7;49
30343;BME280;17145;49.902;8.680;'2023-02-20 04:09:09';101060;;;7;49
30343;BME280;17145;49.902;8.680;'2023-02-20 04:11:39';101060;;;7;49
30343;BME280;17145;49.902;8.680;'2023-02-20 04:14:11';101060;;;7;49
30343;BME280;17145;49.902;8.680;'2023-02-20 04:16:46';101060;;;7;49
30343;BME280;17145;49.902;8.680;'2023-02-20 04:19:16';101060;;;7;49
30343;BME280;17145;49.902;8.680;'2023-02-20 04:21:47';101060;;;7;49
30343;BME280;17145;49.902;8.680;'2023-02-20 04:24:19';101060;;;7;49
30343;BME280;17145;49.902;8.680;'2023-02-20 04:26:48';101070;;;7;49
30343;BME280;17145;49.902;8.680;'2023-02-20 04:29:21';101070;;;7;49
30343;BME280;17145;49.902;8.680;'2023-02-20 04:31:54';101070;;;7;49
30343;BME280;17145;49.902;8.680;'2023-02-20 04:34:26';101070;;;7;50
30343;BME280;17145;49.902;8.680;'2023-02-20 04:37:00';101070;;;7;50
30343;BME280;17145;49.902;8.680;'2023-02-20 04:39:31';101080;;;7;50
30343;BME280;17145;49.902;8.680;'2023-02-20 04:42:02';101070;;;7;50
30343;BME280;17145;49.902;8.680;'2023-02-20 04:44:32';101070;;;7;50
30343;BME280;17145;49.902;8.680;'2023-02-20 04:47:02';101080;;;7;50
30343;BME280;17145;49.902;8.680;'2023-02-20 04:49:36';101080;;;7;51
30343;BME280;17145;49.902;8.680;'2023-02-20 04:52:04';101090;;;7;51
30343;BME280;17145;49.902;8.680;'2023-02-20 04:54:34';101080;;;7;51
30343;BME280;17145;49.902;8.680;'2023-02-20 04:57:05';101080;;;7;51
30343;BME280;17145;49.902;8.680;'2023-02-20 04:59:39';101090;;;7;52
30343;BME280;17145;49.902;8.680;'2023-02-20 05:02:15';101090;;;7;52
30343;BME280;17145;49.902;8.680;'2023-02-20 05:04:47';101080;;;7;52
30343;BME280;17145;49.902;8.680;'2023-02-20 05:07:20';101080;;;7;52
30343;BME280;17145;49.902;8.680;'2023-02-20 05:09:47';101080;;;7;52
30343;BME280;17145;49.902;8.680;'2023-02-20 05:12:21';101080;;;7;52
30343;BME280;17145;49.902;8.680;'2023-02-20 05:14:52';101080;;;7;53
30343;BME280;17145;49.902;8.680;'2023-02-20 05:17:23';101090;;;7;53
30343;BME280;17145;49.902;8.680;'2023-02-20 05:19:51';101090;;;7;53
30343;BME280;17145;49.902;8.680;'2023-02-20 05:22:24';101080;;;7;53
30343;BME280;17145;49.902;8.680;'2023-02-20 05:24:56';101080;;;7;53
30343;BME280;17145;49.902;8.680;'2023-02-20 05:27:24';101070;;;7;53
30343;BME280;17145;49.902;8.680;'2023-02-20 05:29:51';101070;;;7;53
30343;BME280;17145;49.902;8.680;'2023-02-20 05:32:19';101070;;;6;54
30343;BME280;17145;49.902;8.680;'2023-02-20 05:34:46';101070;;;7;53
30343;BME280;17145;49.902;8.680;'2023-02-20 05:37:17';101070;;;7;53
30343;BME280;17145;49.902;8.680;'2023-02-20 05:39:45';101080;;;7;53
30343;BME280;17145;49.902;8.680;'2023-02-20 05:42:13';101080;;;7;53
30343;BME280;17145;49.902;8.680;'2023-02-20 05:44:41';101080;;;7;53
30343;BME280;17145;49.902;8.680;'2023-02-20 05:47:15';101090;;;7;53
30343;BME280;17145;49.902;8.680;'2023-02-20 05:49:43';101090;;;7;53
30343;BME280;17145;49.902;8.680;'2023-02-20 05:52:10';101090;;;6;54
30343;BME280;17145;49.902;8.680;'2023-02-20 05:54:37';101080;;;6;54
30343;BME280;17145;49.902;8.680;'2023-02-20 05:57:05';101070;;;7;54
30343;BME280;17145;49.902;8.680;'2023-02-20 05:59:32';101070;;;7;54
30343;BME280;17145;49.902;8.680;'2023-02-20 06:01:59';101070;;;7;54
30343;BME280;17145;49.902;8.680;'2023-02-20 06:04:27';101070;;;7;54
30343;BME280;17145;49.902;8.680;'2023-02-20 06:06:55';101060;;;7;53
30343;BME280;17145;49.902;8.680;'2023-02-20 06:09:24';101060;;;7;53
30343;BME280;17145;49.902;8.680;'2023-02-20 06:11:51';101060;;;7;53
30343;BME280;17145;49.902;8.680;'2023-02-20 06:14:20';101060;;;7;54
30343;BME280;17145;49.902;8.680;'2023-02-20 06:16:48';101060;;;7;54
30343;BME280;17145;49.902;8.680;'2023-02-20 06:19:16';101070;;;6;54
30343;BME280;17145;49.902;8.680;'2023-02-20 06:21:45';101060;;;7;54
30343;BME280;17145;49.902;8.680;'2023-02-20 06:24:12';101060;;;6;54
30343;BME280;17145;49.902;8.680;'2023-02-20 06:26:40';101060;;;7;54
30343;BME280;17145;49.902;8.680;'2023-02-20 06:29:07';101060;;;6;54
30343;BME280;17145;49.902;8.680;'2023-02-20 06:31:35';101070;;;6;55
30343;BME280;17145;49.902;8.680;'2023-02-20 06:34:03';101060;;;6;55
30343;BME280;17145;49.902;8.680;'2023-02-20 06:36:31';101060;;;6;55
30343;BME280;17145;49.902;8.680;'2023-02-20 06:38:59';101070;;;6;55
30343;BME280;17145;49.902;8.680;'2023-02-20 06:41:26';101080;;;6;55
30343;BME280;17145;49.902;8.680;'2023-02-20 06:43:54';101080;;;6;55
30343;BME280;17145;49.902;8.680;'2023-02-20 06:46:22';101070;;;6;55
30343;BME280;17145;49.902;8.680;'2023-02-20 06:48:51';101060;;;6;55
30343;BME280;17145;49.902;8.680;'2023-02-20 06:51:21';101060;;;6;55
30343;BME280;17145;49.902;8.680;'2023-02-20 06:53:48';101060;;;6;55
30343;BME280;17145;49.902;8.680;'2023-02-20 06:56:16';101070;;;6;55
30343;BME280;17145;49.902;8.680;'2023-02-20 06:58:44';101070;;;6;55
30343;BME280;17145;49.902;8.680;'2023-02-20 07:01:17';101060;;;6;55
30343;BME280;17145;49.902;8.680;'2023-02-20 07:03:45';101060;;;6;55
30343;BME280;17145;49.902;8.680;'2023-02-20 07:06:13';101060;;;6;56
30343;BME280;17145;49.902;8.680;'2023-02-20 07:08:40';101060;;;6;55
30343;BME280;17145;49.902;8.680;'2023-02-20 07:11:10';101060;;;6;55
30343;BME280;17145;49.902;8.680;'2023-02-20 07:13:39';101070;;;5;56
30343;BME280;17145;49.902;8.680;'2023-02-20 07:16:07';101060;;;6;56
30343;BME280;17145;49.902;8.680;'2023-02-20 07:18:38';101060;;;5;58
30343;BME280;17145;49.902;8.680;'2023-02-20 07:21:07';101060;;;6;57
30343;BME280;17145;49.902;8.680;'2023-02-20 07:23:35';101060;;;6;56
30343;BME280;17145;49.902;8.680;'2023-02-20 07:26:03';101050;;;6;56
30343;BME280;17145;49.902;8.680;'2023-02-20 07:28:30';101050;;;5;56
30343;BME280;17145;49.902;8.680;'2023-02-20 07:30:57';101050;;;6;56
30343;BME280;17145;49.902;8.680;'2023-02-20 07:33:25';101050;;;6;56
30343;BME280;17145;49.902;8.680;'2023-02-20 07:35:52';101060;;;6;56
30343;BME280;17145;49.902;8.680;'2023-02-20 07:38:19';101060;;;6;55
30343;BME280;17145;49.902;8.680;'2023-02-20 07:40:47';101060;;;6;56
30343;BME280;17145;49.902;8.680;'2023-02-20 07:43:14';101060;;;6;56
30343;BME280;17145;49.902;8.680;'2023-02-20 07:45:42';101070;;;6;57
30343;BME280;17145;49.902;8.680;'2023-02-20 07:48:10';101070;;;6;57
30343;BME280;17145;49.902;8.680;'2023-02-20 07:50:37';101080;;;5;58
30343;BME280;17145;49.902;8.680;'2023-02-20 07:53:05';101080;;;6;57
30343;BME280;17145;49.902;8.680;'2023-02-20 07:55:33';101080;;;6;57
30343;BME280;17145;49.902;8.680;'2023-02-20 07:58:01';101080;;;6;57
30343;BME280;17145;49.902;8.680;'2023-02-20 08:00:28';101080;;;6;56
30343;BME280;17145;49.902;8.680;'2023-02-20 08:02:56';101080;;;6;56
30343;BME280;17145;49.902;8.680;'2023-02-20 08:05:23';101070;;;6;57
30343;BME280;17145;49.902;8.680;'2023-02-20 08:07:50';101080;;;6;56
30343;BME280;17145;49.902;8.680;'2023-02-20 08:10:18';101080;;;6;57
30343;BME280;17145;49.902;8.680;'2023-02-20 08:12:45';101090;;;6;57
30343;BME280;17145;49.902;8.680;'2023-02-20 08:15:13';101080;;;6;56
30343;BME280;17145;49.902;8.680;'2023-02-20 08:17:40';101070;;;5;57
30343;BME280;17145;49.902;8.680;'2023-02-20 08:20:08';101070;;;6;56
30343;BME280;17145;49.902;8.680;'2023-02-20 08:22:36';101070;;;6;56
30343;BME280;17145;49.902;8.680;'2023-02-20 08:25:04';101070;;;6;56
30343;BME280;17145;49.902;8.680;'2023-02-20 08:27:32';101080;;;6;56
30343;BME280;17145;49.902;8.680;'2023-02-20 08:29:59';101080;;;6;56
30343;BME280;17145;49.902;8.680;'2023-02-20 08:32:27';101080;;;6;56
30343;BME280;17145;49.902;8.680;'2023-02-20 08:34:54';101070;;;6;56
30343;BME280;17145;49.902;8.680;'2023-02-20 08:37:22';101080;;;6;56
30343;BME280;17145;49.902;8.680;'2023-02-20 08:39:49';101080;;;6;56
30343;BME280;17145;49.902;8.680;'2023-02-20 08:42:17';101070;;;6;55
30343;BME280;17145;49.902;8.680;'2023-02-20 08:44:44';101070;;;6;55
30343;BME280;17145;49.902;8.680;'2023-02-20 08:47:12';101070;;;6;55
30343;BME280;17145;49.902;8.680;'2023-02-20 08:49:39';101060;;;6;55
30343;BME280;17145;49.902;8.680;'2023-02-20 08:52:07';101060;;;6;56
30343;BME280;17145;49.902;8.680;'2023-02-20 08:54:34';101060;;;7;55
30343;BME280;17145;49.902;8.680;'2023-02-20 08:57:02';101060;;;7;55
30343;BME280;17145;49.902;8.680;'2023-02-20 08:59:29';101060;;;6;55
30343;BME280;17145;49.902;8.680;'2023-02-20 09:01:57';101060;;;6;55
30343;BME280;17145;49.902;8.680;'2023-02-20 09:04:24';101060;;;6;55
30343;BME280;17145;49.902;8.680;'2023-02-20 09:06:51';101060;;;7;55
30343;BME280;17145;49.902;8.680;'2023-02-20 09:09:19';101050;;;6;55
30343;BME280;17145;49.902;8.680;'2023-02-20 09:11:46';101050;;;7;54
30343;BME280;17145;49.902;8.680;'2023-02-20 09:14:14';101040;;;6;55
30343;BME280;17145;49.902;8.680;'2023-02-20 09:16:42';101050;;;6;56
30343;BME280;17145;49.902;8.680;'2023-02-20 09:19:09';101050;;;6;55
30343;BME280;17145;49.902;8.680;'2023-02-20 09:21:36';101040;;;7;54
30343;BME280;17145;49.902;8.680;'2023-02-20 09:24:04';101040;;;7;54
30343;BME280;17145;49.902;8.680;'2023-02-20 09:26:32';101030;;;7;54
30343;BME280;17145;49.902;8.680;'2023-02-20 09:29:00';101020;;;7;54
30343;BME280;17145;49.902;8.680;'2023-02-20 09:31:27';101020;;;7;54
30343;BME280;17145;49.902;8.680;'2023-02-20 09:33:54';101020;;;7;54
30343;BME280;17145;49.902;8.680;'2023-02-20 09:36:22';101010;;;7;54
30343;BME280;17145;49.902;8.680;'2023-02-20 09:38:49';101010;;;7;53
30343;BME280;17145;49.902;8.680;'2023-02-20 09:41:16';101020;;;7;54
30343;BME280;17145;49.902;8.680;'2023-02-20 09:43:44';101000;;;7;53
30343;BME280;17145;49.902;8.680;'2023-02-20 09:46:11';101000;;;7;53
30343;BME280;17145;49.902;8.680;'2023-02-20 09:48:39';101000;;;7;53
30343;BME280;17145;49.902;8.680;'2023-02-20 09:51:06';101010;;;7;53
30343;BME280;17145;49.902;8.680;'2023-02-20 09:53:36';101010;;;7;54
30343;BME280;17145;49.902;8.680;'2023-02-20 09:56:04';101010;;;7;54
30343;BME280;17145;49.902;8.680;'2023-02-20 09:58:31';101010;;;7;54
30343;BME280;17145;49.902;8.680;'2023-02-20 10:00:59';101020;;;7;55
30343;BME280;17145;49.902;8.680;'2023-02-20 10:03:26';101020;;;7;54
30343;BME280;17145;49.902;8.680;'2023-02-20 10:05:54';101020;;;7;54
30343;BME280;17145;49.902;8.680;'2023-02-20 10:08:21';101020;;;7;54
30343;BME280;17145;49.902;8.680;'2023-02-20 10:10:49';101020;;;7;53
30343;BME280;17145;49.902;8.680;'2023-02-20 10:13:16';101020;;;7;53
30343;BME280;17145;49.902;8.680;'2023-02-20 10:15:43';101020;;;7;53
30343;BME280;17145;49.902;8.680;'2023-02-20 10:18:13';101020;;;8;53
30343;BME280;17145;49.902;8.680;'2023-02-20 10:20:41';101020;;;7;53
30343;BME280;17145;49.902;8.680;'2023-02-20 10:23:09';101010;;;8;53
30343;BME280;17145;49.902;8.680;'2023-02-20 10:25:36';101010;;;8;53
30343;BME280;17145;49.902;8.680;'2023-02-20 10:28:04';101020;;;8;53
30343;BME280;17145;49.902;8.680;'2023-02-20 10:30:31';101010;;;8;53
30343;BME280;17145;49.902;8.680;'2023-02-20 10:32:59';101010;;;7;53
30343;BME280;17145;49.902;8.680;'2023-02-20 10:35:29';101010;;;8;53
30343;BME280;17145;49.902;8.680;'2023-02-20 10:37:57';101010;;;8;53
30343;BME280;17145;49.902;8.680;'2023-02-20 10:40:27';100990;;;8;52
30343;BME280;17145;49.902;8.680;'2023-02-20 10:43:09';101000;;;8;52
30343;BME280;17145;49.902;8.680;'2023-02-20 10:45:40';100990;;;8;52
30343;BME280;17145;49.902;8.680;'2023-02-20 10:48:18';100980;;;8;52
30343;BME280;17145;49.902;8.680;'2023-02-20 10:50:53';100990;;;8;52
30343;BME280;17145;49.902;8.680;'2023-02-20 10:53:26';100990;;;8;52
30343;BME280;17145;49.902;8.680;'2023-02-20 10:55:55';100990;;;8;52
30343;BME280;17145;49.902;8.680;'2023-02-20 10:58:27';100990;;;9;52
30343;BME280;17145;49.902;8.680;'2023-02-20 11:01:00';100990;;;9;51
30343;BME280;17145;49.902;8.680;'2023-02-20 11:03:35';100980;;;9;51
30343;BME280;17145;49.902;8.680;'2023-02-20 11:06:12';100990;;;9;51
30343;BME280;17145;49.902;8.680;'2023-02-20 11:08:40';100980;;;9;50
30343;BME280;17145;49.902;8.680;'2023-02-20 11:11:11';100990;;;10;50
30343;BME280;17145;49.902;8.680;'2023-02-20 11:13:53';100980;;;9;50
30343;BME280;17145;49.902;8.680;'2023-02-20 11:16:31';100980;;;10;49
30343;BME280;17145;49.902;8.680;'2023-02-20 11:19:13';100990;;;9;50
30343;BME280;17145;49.902;8.680;'2023-02-20 11:21:51';100980;;;9;49
30343;BME280;17145;49.902;8.680;'2023-02-20 11:24:33';100970;;;10;50
30343;BME280;17145;49.902;8.680;'2023-02-20 11:27:10';100960;;;10;49
30343;BME280;17145;49.902;8.680;'2023-02-20 11:29:39';100970;;;10;49
30343;BME280;17145;49.902;8.680;'2023-02-20 11:32:11';100970;;;10;48
30343;BME280;17145;49.902;8.680;'2023-02-20 11:34:45';100980;;;10;49
30343;BME280;17145;49.902;8.680;'2023-02-20 11:37:17';100960;;;9;49
30343;BME280;17145;49.902;8.680;'2023-02-20 11:39:51';100960;;;9;49
30343;BME280;17145;49.902;8.680;'2023-02-20 11:42:28';100950;;;9;50
30343;BME280;17145;49.902;8.680;'2023-02-20 11:44:59';100960;;;9;48
30343;BME280;17145;49.902;8.680;'2023-02-20 11:47:33';100940;;;10;48
30343;BME280;17145;49.902;8.680;'2023-02-20 11:50:06';100940;;;10;48
30343;BME280;17145;49.902;8.680;'2023-02-20 11:52:38';100930;;;10;47
30343;BME280;17145;49.902;8.680;'2023-02-20 11:55:10';100930;;;10;48
30343;BME280;17145;49.902;8.680;'2023-02-20 11:57:44';100930;;;11;48
30343;BME280;17145;49.902;8.680;'2023-02-20 12:00:19';100930;;;11;47
30343;BME280;17145;49.902;8.680;'2023-02-20 12:02:52';100920;;;11;47
30343;BME280;17145;49.902;8.680;'2023-02-20 12:05:23';100920;;;11;46
30343;BME280;17145;49.902;8.680;'2023-02-20 12:07:51';100920;;;11;46
30343;BME280;17145;49.902;8.680;'2023-02-20 12:10:18';100920;;;11;45
30343;BME280;17145;49.902;8.680;'2023-02-20 12:12:49';100920;;;11;45
30343;BME280;17145;49.902;8.680;'2023-02-20 12:15:21';100910;;;12;44
30343;BME280;17145;49.902;8.680;'2023-02-20 12:17:53';100910;;;12;45
30343;BME280;17145;49.902;8.680;'2023-02-20 12:20:39';100910;;;11;44
30343;BME280;17145;49.902;8.680;'2023-02-20 12:23:07';100910;;;11;44
30343;BME280;17145;49.902;8.680;'2023-02-20 12:25:36';100900;;;12;45
30343;BME280;17145;49.902;8.680;'2023-02-20 12:28:14';100900;;;12;44
30343;BME280;17145;49.902;8.680;'2023-02-20 12:30:45';100890;;;12;43
30343;BME280;17145;49.902;8.680;'2023-02-20 12:33:16';100880;;;12;42
30343;BME280;17145;49.902;8.680;'2023-02-20 12:35:45';100890;;;12;41
30343;BME280;17145;49.902;8.680;'2023-02-20 12:38:25';100890;;;11;41
30343;BME280;17145;49.902;8.680;'2023-02-20 12:41:01';100880;;;11;42
30343;BME280;17145;49.902;8.680;'2023-02-20 12:43:33';100880;;;11;42
30343;BME280;17145;49.902;8.680;'2023-02-20 12:46:07';100870;;;12;41
30343;BME280;17145;49.902;8.680;'2023-02-20 12:48:35';100870;;;12;41
30343;BME280;17145;49.902;8.680;'2023-02-20 12:51:03';100850;;;12;41
30343;BME280;17145;49.902;8.680;'2023-02-20 12:53:32';100850;;;12;40
30343;BME280;17145;49.902;8.680;'2023-02-20 12:56:09';100840;;;13;39
30343;BME280;17145;49.902;8.680;'2023-02-20 12:58:37';100850;;;13;38
30343;BME280;17145;49.902;8.680;'2023-02-20 13:01:08';100840;;;13;39
30343;BME280;17145;49.902;8.680;'2023-02-20 13:06:21';100830;;;13;38
30343;BME280;17145;49.902;8.680;'2023-02-20 13:08:52';100850;;;12;38
30343;BME280;17145;49.902;8.680;'2023-02-20 13:11:24';100830;;;12;38
30343;BME280;17145;49.902;8.680;'2023-02-20 13:13:53';100810;;;13;39
30343;BME280;17145;49.902;8.680;'2023-02-20 13:16:41';100800;;;13;38
30343;BME280;17145;49.902;8.680;'2023-02-20 13:19:18';100820;;;14;37
30343;BME280;17145;49.902;8.680;'2023-02-20 13:22:00';100800;;;13;36
30343;BME280;17145;49.902;8.680;'2023-02-20 13:24:46';100790;;;14;36
30343;BME280;17145;49.902;8.680;'2023-02-20 13:27:30';100790;;;13;36
30343;BME280;17145;49.902;8.680;'2023-02-20 13:30:07';100780;;;14;34
30343;BME280;17145;49.902;8.680;'2023-02-20 13:32:43';100780;;;14;34
30343;BME280;17145;49.902;8.680;'2023-02-20 13:35:28';100770;;;14;34
30343;BME280;17145;49.902;8.680;'2023-02-20 13:38:12';100780;;;14;33
30343;BME280;17145;49.902;8.680;'2023-02-20 13:40:52';100770;;;14;33
30343;BME280;17145;49.902;8.680;'2023-02-20 13:43:30';100780;;;14;33
30343;BME280;17145;49.902;8.680;'2023-02-20 13:46:07';100780;;;13;33
30343;BME280;17145;49.902;8.680;'2023-02-20 13:48:44';100780;;;14;33
30343;BME280;17145;49.902;8.680;'2023-02-20 13:51:23';100770;;;14;33
30343;BME280;17145;49.902;8.680;'2023-02-20 13:54:03';100780;;;14;33
30343;BME280;17145;49.902;8.680;'2023-02-20 13:56:45';100770;;;14;33
30343;BME280;17145;49.902;8.680;'2023-02-20 13:59:24';100770;;;13;33
30343;BME280;17145;49.902;8.680;'2023-02-20 14:01:53';100780;;;14;33
30343;BME280;17145;49.902;8.680;'2023-02-20 14:04:29';100760;;;14;34
30343;BME280;17145;49.902;8.680;'2023-02-20 14:07:05';100770;;;14;33
30343;BME280;17145;49.902;8.680;'2023-02-20 14:09:37';100760;;;14;32
30343;BME280;17145;49.902;8.680;'2023-02-20 14:12:10';100760;;;14;32
30343;BME280;17145;49.902;8.680;'2023-02-20 14:14:54';100750;;;14;32
30343;BME280;17145;49.902;8.680;'2023-02-20 14:17:32';100760;;;14;32
30343;BME280;17145;49.902;8.680;'2023-02-20 14:20:10';100740;;;15;31
30343;BME280;17145;49.902;8.680;'2023-02-20 14:25:24';100720;;;15;32
30343;BME280;17145;49.902;8.680;'2023-02-20 14:27:59';100730;;;15;31
30343;BME280;17145;49.902;8.680;'2023-02-20 14:30:28';100720;;;15;31
30343;BME280;17145;49.902;8.680;'2023-02-20 14:33:11';100740;;;15;30
30343;BME280;17145;49.902;8.680;'2023-02-20 14:35:49';100710;;;15;30
30343;BME280;17145;49.902;8.680;'2023-02-20 14:40:57';100710;;;16;30
30343;BME280;17145;49.902;8.680;'2023-02-20 14:43:29';100700;;;15;30
30343;BME280;17145;49.902;8.680;'2023-02-20 14:46:11';100690;;;15;30
30343;BME280;17145;49.902;8.680;'2023-02-20 14:51:28';100680;;;15;30
30343;BME280;17145;49.902;8.680;'2023-02-20 14:56:39';100670;;;16;30
30343;BME280;17145;49.902;8.680;'2023-02-20 15:01:53';100650;;;17;29
30343;BME280;17145;49.902;8.680;'2023-02-20 15:04:22';100640;;;17;30
30343;BME280;17145;49.902;8.680;'2023-02-20 15:06:50';100640;;;18;28
30343;BME280;17145;49.902;8.680;'2023-02-20 15:09:20';100640;;;19;27
30343;BME280;17145;49.902;8.680;'2023-02-20 15:11:49';100630;;;19;26
30343;BME280;17145;49.902;8.680;'2023-02-20 15:14:27';100620;;;19;26
30343;BME280;17145;49.902;8.680;'2023-02-20 15:17:06';100620;;;20;26
30343;BME280;17145;49.902;8.680;'2023-02-20 15:19:40';100600;;;21;24
30343;BME280;17145;49.902;8.680;'2023-02-20 15:25:06';100600;;;22;24
30343;BME280;17145;49.902;8.680;'2023-02-20 15:27:33';100580;;;22;23
30343;BME280;17145;49.902;8.680;'2023-02-20 15:30:06';100580;;;22;23
30343;BME280;17145;49.902;8.680;'2023-02-20 15:32:35';100580;;;23;23
30343;BME280;17145;49.902;8.680;'2023-02-20 15:35:12';100570;;;23;22
30343;BME280;17145;49.902;8.680;'2023-02-20 15:37:48';100560;;;22;23
30343;BME280;17145;49.902;8.680;'2023-02-20 15:40:22';100560;;;22;23
30343;BME280;17145;49.902;8.680;'2023-02-20 15:42:49';100550;;;22;23
30343;BME280;17145;49.902;8.680;'2023-02-20 15:45:21';100550;;;22;23
30343;BME280;17145;49.902;8.680;'2023-02-20 15:47:50';100540;;;21;23
30343;BME280;17145;49.902;8.680;'2023-02-20 15:50:21';100550;;;21;23
30343;BME280;17145;49.902;8.680;'2023-02-20 15:53:00';100550;;;21;23
30343;BME280;17145;49.902;8.680;'2023-02-20 15:55:28';100540;;;21;23
30343;BME280;17145;49.902;8.680;'2023-02-20 16:00:31';100550;;;21;23
30343;BME280;17145;49.902;8.680;'2023-02-20 16:02:59';100540;;;22;23
30343;BME280;17145;49.902;8.680;'2023-02-20 16:05:30';100530;;;22;22
30343;BME280;17145;49.902;8.680;'2023-02-20 16:08:08';100540;;;23;21
30343;BME280;17145;49.902;8.680;'2023-02-20 16:10:38';100520;;;23;21
30343;BME280;17145;49.902;8.680;'2023-02-20 16:13:09';100520;;;24;20
30343;BME280;17145;49.902;8.680;'2023-02-20 16:15:40';100520;;;24;20